Date,TemperatureHighF,TemperatureAvgF,TemperatureLowF,DewpointHighF,DewpointAvgF,DewpointLowF,HumidityHigh,HumidityAvg,HumidityLow,PressureMaxIn,PressureMinIn,WindSpeedMaxMPH,WindSpeedAvgMPH,GustSpeedMaxMPH,PrecipitationSumIn
2012-7-8,81.8,81.7,81.6,57.5,56.9,56.3,44,43,42,29.59,29.58,0,0,0,0.00
2012-7-22,85.8,75.0,67.4,62.1,60.5,59.3,77,62,41,29.93,29.89,0,0,0,0.00
2012-7-23,86.0,78.2,67.3,70.1,68.2,60.1,87,72,55,29.92,29.58,7,0,0,0.01
2012-7-24,90.3,76.8,68.8,73.1,68.7,54.3,94,77,51,29.58,29.33,10,0,0,0.25
2012-7-25,78.9,68.2,61.2,57.6,54.3,52.2,77,62,41,29.62,29.51,8,0,0,0.00
2012-7-26,85.0,76.5,67.3,72.3,67.4,57.6,90,74,61,29.60,29.39,6,0,2,0.00
2012-7-27,75.4,71.1,67.5,72.3,67.4,65.0,94,88,83,29.73,29.41,4,0,4,0.01
2012-7-28,79.0,69.3,63.5,68.0,64.6,62.0,95,86,61,29.81,29.72,7,0,0,1.69
2012-7-29,70.5,66.9,62.7,65.8,63.3,59.6,96,89,75,29.89,29.74,7,0,0,0.01
2012-7-30,85.6,70.6,57.7,66.5,61.7,56.6,97,76,50,29.95,29.88,7,0,0,0.00
2012-7-31,79.3,68.3,59.9,65.9,63.0,58.2,96,84,58,29.94,29.71,6,0,0,0.60
2012-8-1,84.3,71.6,65.9,72.0,67.9,64.7,97,89,60,29.74,29.66,6,0,0,0.61
2012-8-2,89.7,77.3,67.1,73.0,69.6,65.9,97,79,51,29.71,29.63,5,0,0,0.00
2012-8-3,93.5,80.7,69.7,72.5,69.7,64.5,96,72,42,29.90,29.71,8,0,0,0.00
2012-8-4,91.3,79.2,71.5,75.8,72.5,69.8,96,82,58,30.03,29.90,5,0,0,0.05
2012-8-5,90.3,78.9,71.9,76.8,73.1,69.4,96,84,59,30.04,29.74,11,0,0,0.25
2012-8-6,85.0,76.0,65.5,71.8,64.3,56.8,96,70,40,29.80,29.73,9,0,0,0.00
2012-8-7,86.2,72.2,59.7,65.8,61.2,57.9,96,71,43,29.83,29.75,5,0,0,0.00
2012-8-8,88.2,75.1,62.4,69.8,64.6,59.1,95,73,39,29.81,29.75,5,0,0,0.00
2012-8-9,91.3,78.3,68.7,71.7,68.4,63.5,93,74,41,29.78,29.69,6,0,0,0.00
2012-8-10,86.3,75.9,71.1,73.0,71.2,69.3,96,86,62,29.75,29.61,8,0,0,0.96
2012-8-11,84.8,76.1,68.5,75.8,71.7,67.3,97,87,72,29.74,29.63,7,0,0,0.00
2012-8-12,84.9,77.2,71.8,74.0,71.8,69.7,94,84,68,29.75,29.66,7,0,0,0.00
2012-8-13,86.3,75.3,65.8,69.8,65.9,62.3,96,75,48,29.76,29.70,6,0,0,0.00
2012-8-14,82.8,73.5,63.5,67.8,64.6,61.6,95,75,53,29.77,29.72,5,0,0,0.00
2012-8-15,85.5,74.2,65.7,70.8,68.0,64.0,95,82,54,29.75,29.65,8,0,0,0.60
2012-8-16,84.2,72.8,65.0,69.1,64.9,61.6,97,78,50,29.69,29.61,8,0,0,0.62
2012-8-17,86.2,77.2,66.8,69.8,67.7,62.5,90,73,55,29.66,29.57,7,0,0,0.02
2012-8-18,69.9,66.4,61.4,67.3,63.9,59.9,96,92,83,29.71,29.63,3,0,0,0.13
2012-8-19,75.3,65.5,54.9,63.3,58.4,52.9,96,79,58,29.78,29.70,4,0,0,0.00
2012-8-20,81.3,69.1,57.6,64.5,60.0,56.1,96,75,45,29.75,29.65,4,0,0,0.00
2012-8-21,82.8,71.0,62.1,63.8,59.6,55.3,92,70,41,29.90,29.71,8,0,0,0.00
2012-8-22,83.0,70.5,57.4,61.7,58.1,51.5,95,68,38,29.96,29.89,4,0,0,0.00
2012-8-23,85.0,72.8,61.3,67.2,63.2,59.6,95,74,48,29.96,29.89,4,0,0,0.00
2012-8-24,81.6,72.0,62.3,67.2,63.8,60.8,96,78,52,30.03,29.92,7,0,0,0.00
2012-8-25,82.2,71.8,63.8,67.8,62.5,56.1,96,75,47,30.15,30.02,7,0,0,0.00
2012-8-26,83.4,70.6,59.2,65.2,60.5,57.5,96,73,46,30.16,30.05,5,0,0,0.00
2012-8-27,86.8,76.2,58.3,69.2,65.7,56.9,95,72,50,30.02,29.74,8,1,0,0.00
2012-8-28,84.5,75.0,68.8,71.8,67.9,59.4,96,80,58,29.74,29.52,7,0,0,0.34
2012-8-29,77.0,66.4,57.1,59.4,52.2,46.1,87,63,36,29.80,29.69,10,1,12,0.00
2012-8-30,81.6,70.6,52.5,59.2,54.9,50.8,95,60,36,29.86,29.77,7,1,0,0.00
2012-8-31,89.3,74.8,60.5,62.5,57.7,52.7,78,57,35,29.79,29.61,8,0,0,0.00
2012-9-1,78.6,71.7,60.9,65.5,59.7,50.7,84,67,51,29.94,29.65,8,1,0,0.00
2012-9-2,79.0,66.7,59.4,61.8,58.3,55.4,93,76,50,29.97,29.85,7,0,0,0.00
2012-9-3,78.8,66.6,57.6,62.6,59.4,55.9,97,79,51,30.05,29.96,6,0,0,0.00
2012-9-4,72.8,67.5,61.6,71.3,65.4,57.5,97,93,79,29.97,29.69,4,0,0,0.47
2012-9-5,82.0,73.6,65.1,75.7,70.0,63.1,97,89,64,29.69,29.53,11,0,0,0.95
2012-9-6,80.3,70.7,63.0,68.8,65.5,61.7,97,84,67,29.73,29.65,4,0,0,0.00
2012-9-7,87.0,74.9,65.9,72.9,68.5,64.4,97,82,55,29.75,29.67,6,0,0,0.00
2012-9-8,82.7,74.7,63.4,72.6,69.5,61.3,95,85,61,29.72,29.44,10,1,18,0.27
2012-9-9,75.1,63.8,55.7,62.1,57.9,53.6,96,83,50,29.67,29.53,5,0,0,0.03
2012-9-10,66.5,59.8,52.2,53.7,49.6,43.8,96,71,53,29.87,29.66,11,1,0,0.00
2012-9-11,73.9,58.9,48.1,52.5,47.0,42.9,87,67,38,30.08,29.87,6,0,0,0.00
2012-9-12,79.6,62.6,47.4,59.1,52.2,45.8,96,73,37,30.17,30.08,4,0,0,0.00
2012-9-13,83.0,68.0,57.3,64.4,59.7,56.1,97,78,45,30.17,30.07,6,0,0,0.00
2012-9-14,83.0,68.4,58.4,65.3,61.3,57.3,97,80,51,30.08,29.89,7,0,0,0.00
2012-9-15,72.0,63.2,52.3,61.0,54.9,48.3,96,77,45,29.90,29.79,9,1,0,0.12
2012-9-16,71.9,57.7,46.2,51.7,47.4,43.3,96,72,36,29.91,29.80,9,0,0,0.00
2012-9-17,74.0,57.6,44.3,56.1,49.8,42.7,97,78,45,29.92,29.83,4,0,0,0.00
2012-9-18,74.0,66.1,55.8,68.4,61.6,53.9,96,86,74,29.88,29.51,15,1,15,0.01
2012-9-19,72.4,63.8,53.3,68.8,54.1,41.8,96,74,40,30.01,29.50,12,1,17,1.34
2012-9-20,63.4,54.6,46.4,49.1,46.4,43.5,93,75,51,30.09,29.98,8,1,0,0.00
2012-9-21,65.5,54.2,46.6,55.1,50.2,45.1,96,87,68,30.00,29.85,5,0,0,0.00
2012-9-22,72.9,60.7,55.0,62.8,57.2,53.3,96,89,69,29.85,29.64,6,0,0,0.02
2012-9-23,69.7,62.0,48.1,63.4,52.4,43.5,96,73,42,29.91,29.61,8,1,0,0.09
2012-9-24,65.9,52.9,42.5,46.1,43.2,40.3,95,73,41,29.95,29.87,9,0,0,0.00
2012-9-25,72.6,57.1,42.4,52.9,46.8,40.2,93,71,45,29.99,29.91,9,1,0,0.00
2012-9-26,72.1,65.0,58.1,63.7,59.9,52.9,93,84,74,29.95,29.81,7,0,0,0.01
2012-9-27,69.5,61.2,50.4,62.9,53.3,45.6,96,78,46,30.06,29.81,7,0,0,0.00
2012-9-28,56.7,54.4,49.7,55.9,53.0,48.0,97,95,91,30.06,29.78,7,0,0,0.93
2012-9-29,56.4,54.5,52.2,55.6,53.2,51.1,97,95,92,29.78,29.69,7,0,0,0.12
2012-9-30,57.7,54.5,50.8,56.4,53.2,49.8,97,95,92,29.73,29.53,3,0,0,0.11
2012-10-1,66.9,56.2,47.8,55.6,51.4,46.7,97,85,64,29.77,29.52,9,1,12,0.00
2012-10-2,68.8,59.3,51.8,60.7,56.1,50.4,97,90,66,29.88,29.75,4,0,0,0.08
2012-10-3,64.3,61.6,60.0,63.1,60.5,59.1,97,96,93,29.98,29.85,4,0,0,0.13
2012-10-4,61.7,60.1,58.6,60.6,59.1,57.8,98,97,95,29.98,29.85,3,0,0,0.04
2012-10-5,75.6,64.1,57.5,62.6,59.3,56.7,98,86,57,29.86,29.73,5,0,0,0.01
2012-10-6,76.4,63.3,51.7,64.0,57.4,44.9,97,82,60,29.75,29.51,11,1,13,0.04
2012-10-7,56.4,49.8,42.9,48.6,44.5,41.3,95,83,59,29.89,29.75,5,0,0,0.11
2012-10-8,57.3,48.9,40.3,47.0,44.3,39.3,97,85,61,30.13,29.87,5,0,0,0.01
2012-10-9,57.7,52.4,47.3,50.3,47.5,45.3,95,84,72,30.13,29.93,9,1,12,0.00
2012-10-10,60.9,54.8,49.4,60.0,53.4,45.9,97,95,82,29.94,29.54,7,0,0,0.17
2012-10-11,56.8,48.9,41.8,48.3,40.1,36.3,92,73,47,29.95,29.62,10,1,15,0.00
2012-10-12,51.9,44.7,35.7,43.6,36.0,25.9,92,73,45,30.18,29.81,9,1,0,0.03
2012-10-13,51.9,40.3,28.7,34.6,28.7,25.3,90,65,36,30.29,30.12,8,0,0,0.00
2012-10-14,64.9,53.0,43.5,57.6,48.6,34.2,96,85,68,30.15,29.76,7,0,0,0.16
2012-10-15,74.3,65.0,56.8,63.0,59.5,54.5,94,83,66,29.76,29.41,14,1,14,0.00
2012-10-16,62.7,51.8,38.9,61.1,43.8,36.6,96,76,52,29.71,29.38,11,1,13,0.10
2012-10-17,59.9,45.7,33.8,43.6,37.7,32.1,96,76,41,29.82,29.70,4,0,0,0.00
2012-10-18,64.1,50.6,38.3,51.7,44.8,37.0,97,82,52,29.94,29.81,5,0,0,0.00
2012-10-19,67.8,59.8,46.8,65.5,57.2,45.4,97,92,66,29.91,29.55,10,1,12,0.16
2012-10-20,72.2,65.2,55.6,66.0,58.8,45.3,98,82,46,29.59,29.42,6,0,0,0.59
2012-10-21,61.8,52.5,43.0,45.8,43.0,40.4,93,72,46,29.70,29.56,10,1,14,0.00
2012-10-22,64.2,54.3,45.5,46.8,43.9,41.7,90,70,45,29.82,29.70,10,1,0,0.00
2012-10-23,63.2,52.6,42.4,48.7,44.7,40.4,94,76,52,29.93,29.82,10,0,0,0.00
2012-10-24,54.5,50.6,43.8,47.9,41.0,35.5,92,70,57,30.03,29.93,5,0,0,0.00
2012-10-25,62.1,50.9,40.8,45.9,41.1,32.2,96,73,34,30.12,30.03,5,0,0,0.00
2012-10-26,66.4,53.4,42.2,55.9,48.5,40.6,97,84,68,30.08,29.92,6,0,0,0.00
2012-10-27,64.4,53.1,44.6,55.7,49.4,43.3,97,88,72,29.94,29.82,6,0,0,0.00
2012-10-28,55.7,52.3,49.5,52.5,50.0,48.1,96,92,82,29.83,29.58,12,1,14,0.14
2012-10-29,61.6,55.9,50.5,60.6,54.1,-99.9,97,95,94,29.58,29.02,26,4,29,1.46
2012-10-30,67.1,60.2,52.7,60.6,57.6,51.6,98,92,71,29.39,29.12,9,1,0,0.72
2012-10-31,55.8,52.1,47.8,55.2,49.2,42.5,98,90,78,29.39,29.27,6,0,0,0.10
2012-11-1,55.9,49.1,42.2,43.8,42.3,39.8,92,78,62,29.39,29.31,6,0,0,0.00
2012-11-2,52.2,47.0,43.0,42.7,40.4,36.8,92,78,62,29.43,29.35,8,0,0,0.02
2012-11-3,52.2,45.4,40.7,38.3,35.7,31.8,79,69,55,29.62,29.42,11,1,12,0.01
2012-11-4,50.9,42.3,36.7,37.5,33.7,30.1,84,72,59,29.76,29.61,9,1,0,0.00
2012-11-5,43.7,38.0,30.1,30.3,25.3,20.0,72,60,45,29.95,29.76,9,1,0,0.00
2012-11-6,40.9,32.2,25.3,25.5,20.3,16.0,85,63,37,30.05,29.95,7,0,0,0.00
2012-11-7,37.3,33.6,30.1,30.1,28.4,25.3,95,81,71,29.99,29.56,15,2,15,0.00
2012-11-8,38.6,35.7,30.8,36.7,33.6,29.0,94,92,82,29.57,29.43,20,3,20,0.44
2012-11-9,52.5,42.8,35.8,33.9,29.1,23.4,83,61,34,29.92,29.57,13,2,17,0.00
2012-11-10,53.3,41.7,33.0,35.9,31.8,27.8,91,70,38,30.27,29.91,9,0,0,0.00
2012-11-11,62.8,50.5,34.2,47.6,42.7,31.6,93,76,52,30.32,30.22,6,0,0,0.00
2012-11-12,68.4,57.3,48.1,59.2,52.0,45.6,97,84,59,30.29,30.04,9,1,0,0.00
2012-11-13,63.8,50.8,38.5,60.9,47.9,32.5,95,90,77,30.24,29.93,9,1,0,0.39
2012-11-14,45.9,39.3,34.3,33.1,27.9,24.9,79,64,45,30.35,30.23,8,1,0,0.00
2012-11-15,42.1,36.0,32.7,32.4,29.4,26.3,89,77,65,30.28,30.12,10,1,0,0.00
2012-11-16,45.4,37.2,31.6,31.9,30.3,27.3,93,77,56,30.25,30.10,5,0,0,0.00
2012-11-17,48.6,37.3,29.5,35.4,30.4,26.2,94,77,53,30.47,30.24,8,0,0,0.00
2012-11-18,47.6,35.4,27.1,34.9,29.9,25.2,95,81,56,30.53,30.42,8,0,0,0.01
2012-11-19,48.2,36.1,28.9,37.4,30.8,24.3,94,82,65,30.42,30.08,7,0,0,0.00
2012-11-20,48.7,37.0,28.4,38.4,32.7,27.2,95,85,66,30.08,29.95,7,0,0,0.00
2012-11-21,49.9,41.2,32.5,41.2,35.7,28.9,93,81,66,30.07,29.97,7,0,0,0.00
2012-11-22,54.2,42.6,35.3,42.4,38.0,33.4,95,85,61,30.10,29.94,4,0,0,0.00
2012-11-23,53.6,42.6,32.3,46.1,39.4,30.9,97,89,72,29.95,29.46,5,0,0,0.00
2012-11-24,46.4,41.1,32.7,44.4,27.6,17.3,95,61,42,29.47,29.34,14,1,14,0.00
2012-11-25,39.0,33.5,30.1,24.4,20.3,16.9,73,58,46,29.68,29.47,15,1,17,0.00
2012-11-26,45.0,36.2,29.0,27.6,24.3,21.3,81,63,41,30.05,29.68,12,1,13,0.00
2012-11-27,36.2,33.1,29.2,33.1,30.1,24.2,96,89,76,30.14,30.03,3,0,0,0.18
2012-11-28,36.5,32.8,27.9,32.2,27.7,24.3,95,82,66,30.03,29.93,8,1,0,0.00
2012-11-29,42.6,35.1,27.2,28.5,25.4,23.1,87,68,51,30.08,29.96,10,1,0,0.00
2012-11-30,36.3,32.2,29.9,27.7,15.6,5.4,76,52,32,30.36,30.01,9,1,0,0.00
2012-12-1,30.8,29.3,26.7,28.3,23.0,13.6,92,79,50,30.44,30.31,5,0,0,0.00
2012-12-2,50.5,39.1,29.9,47.4,36.8,27.7,96,91,84,30.31,29.84,7,0,0,0.06
2012-12-3,57.1,48.4,35.1,47.4,42.6,33.3,95,81,58,30.11,29.83,12,1,13,0.00
2012-12-4,56.9,45.0,32.6,54.8,43.7,31.2,97,95,92,30.14,29.78,7,0,0,0.02
2012-12-5,57.8,49.3,33.0,55.0,39.4,16.7,92,70,50,29.96,29.63,16,2,17,0.01
2012-12-6,38.4,31.3,25.1,22.0,19.4,16.5,84,62,44,30.13,29.95,12,1,12,0.00
2012-12-7,44.0,35.5,24.2,40.5,31.0,20.6,95,84,71,30.11,29.84,3,0,0,0.02
2012-12-8,44.3,42.5,41.8,43.5,41.5,40.5,97,96,95,29.85,29.67,4,0,0,0.28
2012-12-9,44.4,41.7,39.3,43.1,37.4,31.3,97,85,63,30.11,29.77,7,0,0,0.14
2012-12-10,59.1,50.9,40.8,58.4,50.0,39.5,98,97,95,29.97,29.30,6,0,0,0.43
2012-12-11,55.2,44.0,32.9,54.1,36.1,23.9,96,74,57,29.96,29.34,9,0,0,0.01
2012-12-12,39.1,32.6,28.3,26.1,24.0,22.0,87,71,53,30.24,29.97,5,0,0,0.00
2012-12-13,43.1,32.0,25.3,28.9,25.8,23.6,94,79,51,30.29,30.10,5,0,0,0.00
2012-12-14,47.9,35.2,25.9,28.8,25.0,22.5,90,69,38,30.10,29.85,9,0,0,0.00
2012-12-16,37.3,34.8,30.7,36.3,31.6,23.2,96,88,73,30.10,29.88,9,1,0,0.26
2012-12-17,38.6,34.3,31.0,37.4,33.3,29.7,97,96,92,29.88,29.61,7,1,0,0.55
2012-12-18,50.2,43.5,36.5,49.7,42.6,35.7,98,97,94,29.62,29.22,8,0,0,0.68
2012-12-19,45.0,41.0,37.1,40.0,34.0,30.3,95,77,64,29.84,29.25,15,2,16,0.01
2012-12-20,42.0,36.4,28.1,35.6,31.0,26.3,95,81,64,30.03,29.84,6,0,0,0.00
2012-12-21,53.7,43.6,37.0,52.6,40.9,34.0,96,90,76,29.86,28.90,21,2,21,0.63
2012-12-22,38.6,33.7,29.0,34.2,24.9,17.2,87,71,53,29.45,29.04,16,1,21,0.00
2012-12-23,37.9,32.5,26.5,25.3,21.2,16.8,75,63,49,29.68,29.45,13,1,13,0.00
2012-12-24,39.6,32.5,27.3,24.6,21.7,19.3,80,65,45,29.87,29.67,8,0,0,0.00
2012-12-25,33.5,30.7,27.1,28.2,25.0,18.6,89,79,69,30.03,29.80,8,1,0,0.01
2012-12-26,37.1,29.8,21.4,33.6,23.1,14.1,94,76,62,30.13,29.71,15,1,18,0.36
2012-12-27,44.7,37.8,31.0,43.6,36.3,29.3,96,94,91,29.71,29.05,20,3,22,2.38
2012-12-28,36.0,30.9,26.8,29.4,24.3,20.8,91,76,64,29.82,29.43,11,1,15,0.00
2012-12-29,32.9,29.3,25.4,31.2,26.4,23.1,96,89,74,29.82,29.20,3,0,0,0.01
2012-12-30,29.5,26.4,20.5,27.8,19.3,9.9,95,76,55,29.78,29.24,8,1,18,0.00
2012-12-31,33.3,26.8,18.0,25.3,19.1,9.8,82,72,63,29.86,29.58,11,1,14,0.00
2013-1-1,36.4,31.2,20.3,26.8,19.4,7.8,75,62,50,29.74,29.53,15,1,15,0.08